Terminal Aerodrome Forecast
Issued by NWS Cleveland, OH

Home | Current Version | Previous Version | Text Only | Print | Product List | Glossary On
Versions: 1 2 3 4 5 6 7 8 9 10 11 12 13 14 15 16 17 18 19 20 21 22 23 24 25
000
FTUS41 KCLE 060500
TAFCAK
TAF
KCAK 060539Z 0606/0706 VRB03KT P6SM SKC
     FM061600 22008KT P6SM SCT120 BKN200
     FM070000 20008KT P6SM BKN070 OVC120=

USA.gov is the U.S. government's official web portal to all federal, state and local government web resources and services.